NCAR-RAP Real-Time Weather Data

Output produced by METARs form (08 May 2021  01:17 UTC)
found at http://weather.rap.ucar.edu/surface/
 
KRIL 080100Z AUTO 23006G19KT 10SM CLR 27/M08 A2979 RMK AO2 WSHFT 0040 T02721078
KRIL 080053Z AUTO 20013KT 10SM CLR 27/M08 A2979 RMK AO2 PK WND 25027/0016 WSHFT 0004 SLP032 T02671083
KRIL 080024Z AUTO 26020G27KT 10SM CLR 28/M07 A2980 RMK AO2 PK WND 25027/0016 WSHFT 0004 T02781067
KRIL 072353Z AUTO 23013G24KT 10SM CLR 27/M07 A2981 RMK AO2 PK WND 21033/2327 SLP041 T02671072 10294 20228 56023
KRIL 072253Z AUTO 25017G25KT 10SM CLR 29/M06 A2982 RMK AO2 PK WND 23030/2203 SLP038 T02891061
KRIL 072153Z AUTO 23017G31KT 10SM CLR 29/M06 A2986 RMK AO2 PK WND 26036/2134 WSHFT 2120 SLP048 T02891061
KRIL 072140Z AUTO 24024G36KT 10SM CLR 29/M06 A2986 RMK AO2 PK WND 26036/2134 WSHFT 2120 T02941056
KRIL 072053Z AUTO 26015G38KT 10SM CLR 28/M06 A2989 RMK AO2 PK WND 20038/2049 WSHFT 1941 SLP060 T02831056 56030
KRIL 072001Z AUTO 26015G37KT 10SM CLR 29/M04 A2992 RMK AO2 PK WND 20037/1957 WSHFT 1941 T02891044
KRIL 071953Z AUTO 21016G23KT 10SM CLR 28/M04 A2992 RMK AO2 PK WND 27027/1936 SLP068 T02831044
KRIL 071853Z AUTO 31006KT 10SM CLR 26/M03 A2996 RMK AO2 SLP085 T02611028
KRIL 071753Z AUTO VRB05KT 10SM CLR 23/M01 A3000 RMK AO2 SLP100 T02281006 10233 20056 58024
KRIL 071653Z AUTO VRB04KT 10SM CLR 20/M01 A3003 RMK AO2 SLP114 T02001011
KRIL 071553Z AUTO 00000KT 10SM CLR 17/M02 A3007 RMK AO2 SLP129 T01721017
KRIL 071453Z AUTO 09003KT 10SM CLR 14/M01 A3008 RMK AO2 SLP136 T01391011 58005
KRIL 071353Z AUTO 00000KT 10SM CLR 09/00 A3010 RMK AO2 SLP143 T00890000
KRIL 071253Z AUTO 10003KT 10SM CLR 07/01 A3011 RMK AO2 SLP143 T00670006
KRIL 071153Z AUTO 00000KT 10SM CLR 06/M01 A3010 RMK AO2 SLP142 T00561006 10128 20056 58005